createdAt,value
2023-01-28T00:01:51.780Z,0.86
2023-01-28T00:04:21.205Z,0.99
2023-01-28T00:06:49.224Z,0.95
2023-01-28T00:09:17.415Z,0.94
2023-01-28T00:11:45.477Z,0.91
2023-01-28T00:14:13.636Z,0.83
2023-01-28T00:16:41.659Z,0.87
2023-01-28T00:19:09.826Z,1.01
2023-01-28T00:21:39.293Z,0.97
2023-01-28T00:24:09.505Z,0.87
2023-01-28T00:26:37.886Z,0.85
2023-01-28T00:29:06.552Z,0.90
2023-01-28T00:31:35.402Z,0.87
2023-01-28T00:34:03.494Z,0.91
2023-01-28T00:36:31.660Z,0.88
2023-01-28T00:39:01.055Z,1.01
2023-01-28T00:41:29.921Z,0.98
2023-01-28T00:43:59.948Z,1.03
2023-01-28T00:46:28.331Z,0.91
2023-01-28T00:48:56.680Z,0.90
2023-01-28T00:51:24.930Z,0.99
2023-01-28T00:53:53.030Z,1.15
2023-01-28T00:56:22.734Z,1.31
2023-01-28T00:58:50.880Z,1.17
2023-01-28T01:01:20.215Z,1.20
2023-01-28T01:03:54.387Z,0.98
2023-01-28T01:06:23.513Z,0.93
2023-01-28T01:08:51.674Z,0.97
2023-01-28T01:11:19.821Z,0.87
2023-01-28T01:13:52.407Z,0.98
2023-01-28T01:16:20.437Z,0.86
2023-01-28T01:18:52.195Z,0.83
2023-01-28T01:21:23.856Z,0.96
2023-01-28T01:23:52.568Z,0.94
2023-01-28T01:26:20.648Z,0.86
2023-01-28T01:28:49.108Z,0.86
2023-01-28T01:31:19.962Z,0.94
2023-01-28T01:33:48.949Z,0.92
2023-01-28T01:36:18.509Z,1.09
2023-01-28T01:38:46.734Z,0.88
2023-01-28T01:41:23.043Z,1.10
2023-01-28T01:43:54.643Z,1.09
2023-01-28T01:46:27.279Z,1.11
2023-01-28T01:48:56.897Z,1.11
2023-01-28T01:51:27.821Z,1.02
2023-01-28T01:53:57.649Z,1.10
2023-01-28T01:56:28.699Z,1.27
2023-01-28T01:58:58.377Z,1.10
2023-01-28T02:01:30.214Z,1.01
2023-01-28T02:04:04.276Z,1.09
2023-01-28T02:06:33.190Z,1.18
2023-01-28T02:09:01.316Z,1.03
2023-01-28T02:11:31.892Z,0.99
2023-01-28T02:14:03.333Z,0.96
2023-01-28T02:16:33.365Z,1.02
2023-01-28T02:19:01.495Z,0.95
2023-01-28T02:21:44.943Z,0.77
2023-01-28T02:24:27.947Z,1.07
2023-01-28T02:27:09.872Z,0.89
2023-01-28T02:29:44.735Z,0.92
2023-01-28T02:32:18.777Z,0.95
2023-01-28T02:34:48.774Z,1.00
2023-01-28T02:37:18.831Z,1.10
2023-01-28T02:39:49.853Z,0.85
2023-01-28T02:42:20.310Z,0.96
2023-01-28T02:44:50.149Z,0.97
2023-01-28T02:47:36.745Z,1.00
2023-01-28T02:50:07.533Z,0.97
2023-01-28T02:53:00.842Z,1.11
2023-01-28T02:55:33.124Z,0.89
2023-01-28T02:58:06.236Z,1.00
2023-01-28T03:00:42.578Z,1.05
2023-01-28T03:03:16.529Z,1.04
2023-01-28T03:06:03.318Z,1.09
2023-01-28T03:08:55.118Z,1.43
2023-01-28T03:11:40.984Z,1.43
2023-01-28T03:14:28.257Z,1.62
2023-01-28T03:17:16.721Z,1.38
2023-01-28T03:20:02.618Z,1.37
2023-01-28T03:22:51.582Z,1.10
2023-01-28T03:25:39.367Z,1.20
2023-01-28T03:28:28.740Z,1.51
2023-01-28T03:31:21.836Z,1.33
2023-01-28T03:34:13.375Z,1.34
2023-01-28T03:36:53.452Z,1.47
2023-01-28T03:39:33.767Z,1.40
2023-01-28T03:42:03.952Z,1.46
2023-01-28T03:44:51.853Z,1.47
2023-01-28T03:47:21.784Z,1.24
2023-01-28T03:49:53.057Z,1.24
2023-01-28T03:52:23.949Z,1.15
2023-01-28T03:54:53.006Z,1.31
2023-01-28T03:57:22.166Z,1.41
2023-01-28T03:59:50.748Z,1.80
2023-01-28T04:02:19.457Z,1.91
2023-01-28T04:04:50.118Z,1.72
2023-01-28T04:07:22.282Z,1.60
2023-01-28T04:10:19.766Z,1.73
2023-01-28T04:12:55.864Z,1.77
2023-01-28T04:15:26.020Z,1.56
2023-01-28T04:17:55.740Z,1.69
2023-01-28T04:20:30.331Z,1.73
2023-01-28T04:23:02.214Z,1.39
2023-01-28T04:25:31.296Z,1.43
2023-01-28T04:27:59.598Z,1.28
2023-01-28T04:30:30.328Z,1.05
2023-01-28T04:33:14.364Z,0.95
2023-01-28T04:36:00.074Z,0.93
2023-01-28T04:38:48.469Z,0.88
2023-01-28T04:41:27.319Z,1.00
2023-01-28T04:43:57.946Z,0.92
2023-01-28T04:46:40.597Z,0.86
2023-01-28T04:49:22.184Z,0.87
2023-01-28T04:52:09.033Z,0.83
2023-01-28T04:55:01.198Z,0.89
2023-01-28T04:57:30.175Z,0.86
2023-01-28T04:59:58.246Z,0.86
2023-01-28T05:02:26.522Z,0.88
2023-01-28T05:04:54.746Z,0.86
2023-01-28T05:07:41.659Z,0.85
2023-01-28T05:10:11.787Z,0.89
2023-01-28T05:12:40.116Z,0.86
2023-01-28T05:15:10.021Z,0.83
2023-01-28T05:17:38.206Z,0.74
2023-01-28T05:20:07.061Z,0.76
2023-01-28T05:22:37.244Z,0.69
2023-01-28T05:25:21.025Z,0.74
2023-01-28T05:27:52.329Z,0.65
2023-01-28T05:30:20.934Z,0.74
2023-01-28T05:32:49.473Z,0.66
2023-01-28T05:35:21.710Z,0.66
2023-01-28T05:37:49.851Z,0.69
2023-01-28T05:40:19.287Z,0.63
2023-01-28T05:42:48.749Z,0.61
2023-01-28T05:45:37.059Z,0.73
2023-01-28T05:48:09.188Z,0.67
2023-01-28T05:50:51.165Z,0.58
2023-01-28T05:53:30.330Z,0.60
2023-01-28T05:55:58.528Z,0.63
2023-01-28T05:58:30.872Z,0.68
2023-01-28T06:01:00.664Z,0.69
2023-01-28T06:03:36.999Z,0.79
2023-01-28T06:06:05.372Z,0.72
2023-01-28T06:08:33.420Z,0.60
2023-01-28T06:11:01.759Z,0.67
2023-01-28T06:13:35.279Z,0.74
2023-01-28T06:16:16.106Z,0.74
2023-01-28T06:19:01.108Z,0.69
2023-01-28T06:21:30.313Z,0.84
2023-01-28T06:23:59.621Z,0.82
2023-01-28T06:26:27.741Z,0.72
2023-01-28T06:28:57.165Z,0.72
2023-01-28T06:31:25.214Z,0.81
2023-01-28T06:33:53.575Z,0.83
2023-01-28T06:36:21.711Z,0.67
2023-01-28T06:38:49.820Z,0.76
2023-01-28T06:41:17.907Z,0.66
2023-01-28T06:43:45.927Z,0.68
2023-01-28T06:46:15.332Z,0.60
2023-01-28T06:48:43.415Z,0.75
2023-01-28T06:51:11.474Z,0.83
2023-01-28T06:53:39.514Z,0.86
2023-01-28T06:56:08.551Z,0.79
2023-01-28T06:58:36.593Z,0.82
2023-01-28T07:01:04.727Z,0.86
2023-01-28T07:03:34.184Z,0.91
2023-01-28T07:06:02.244Z,0.83
2023-01-28T07:08:30.633Z,0.89
2023-01-28T07:10:58.633Z,0.97
2023-01-28T07:13:26.674Z,0.94
2023-01-28T07:15:54.754Z,0.91
2023-01-28T07:18:22.779Z,0.87
2023-01-28T07:20:52.132Z,0.92
2023-01-28T07:23:20.180Z,0.79
2023-01-28T07:25:48.255Z,0.85
2023-01-28T07:28:21.248Z,0.88
2023-01-28T07:30:52.483Z,0.94
2023-01-28T07:33:21.855Z,0.99
2023-01-28T07:35:50.107Z,0.99
2023-01-28T07:38:19.523Z,0.98
2023-01-28T07:40:47.834Z,0.96
2023-01-28T07:43:15.837Z,0.99
2023-01-28T07:45:43.995Z,0.96
2023-01-28T07:48:13.414Z,0.99
2023-01-28T07:50:42.008Z,1.07
2023-01-28T07:53:10.960Z,1.03
2023-01-28T07:55:40.647Z,1.09
2023-01-28T07:58:09.188Z,1.14
2023-01-28T08:00:38.124Z,1.12
2023-01-28T08:03:07.855Z,1.15
2023-01-28T08:05:40.976Z,1.23
2023-01-28T08:08:09.580Z,1.15
2023-01-28T08:10:37.958Z,1.20
2023-01-28T08:13:08.078Z,1.06
2023-01-28T08:15:36.871Z,1.23
2023-01-28T08:18:05.980Z,1.09
2023-01-28T08:20:33.999Z,1.19
2023-01-28T08:23:08.490Z,1.35
2023-01-28T08:25:37.155Z,1.24
2023-01-28T08:28:05.711Z,1.18
2023-01-28T08:30:35.597Z,1.15
2023-01-28T08:33:03.821Z,1.27
2023-01-28T08:35:31.987Z,1.32
2023-01-28T08:38:00.354Z,1.25
2023-01-28T08:40:28.705Z,1.28
2023-01-28T08:42:59.291Z,1.38
2023-01-28T08:45:28.499Z,1.26
2023-01-28T08:47:58.832Z,1.21
2023-01-28T08:50:28.131Z,1.30
2023-01-28T08:52:57.225Z,1.25
2023-01-28T08:55:25.562Z,1.36
2023-01-28T08:57:54.097Z,1.35
2023-01-28T09:00:22.927Z,1.42
2023-01-28T09:02:52.024Z,1.41
2023-01-28T09:05:22.003Z,1.52
2023-01-28T09:07:50.917Z,1.48
2023-01-28T09:10:20.420Z,1.39
2023-01-28T09:12:48.697Z,1.58
2023-01-28T09:15:16.812Z,1.36
2023-01-28T09:17:44.890Z,1.31
2023-01-28T09:20:14.059Z,1.57
2023-01-28T09:22:46.001Z,1.53
2023-01-28T09:25:14.268Z,1.79
2023-01-28T09:27:42.406Z,1.72
2023-01-28T09:30:11.395Z,1.94
2023-01-28T09:32:39.361Z,1.42
2023-01-28T09:35:07.724Z,1.40
2023-01-28T09:37:35.763Z,1.54
2023-01-28T09:40:05.821Z,1.55
2023-01-28T09:42:40.603Z,1.43
2023-01-28T09:45:13.318Z,1.41
2023-01-28T09:47:43.064Z,1.51
2023-01-28T09:50:15.900Z,1.54
2023-01-28T09:52:45.145Z,1.63
2023-01-28T09:55:21.036Z,1.79
2023-01-28T09:57:52.108Z,1.64
2023-01-28T10:00:22.644Z,1.82
2023-01-28T10:02:55.940Z,1.81
2023-01-28T10:05:27.955Z,1.79
2023-01-28T10:08:00.107Z,1.72
2023-01-28T10:10:31.463Z,1.69
2023-01-28T10:13:06.430Z,1.70
2023-01-28T10:15:45.774Z,1.72
2023-01-28T10:18:17.965Z,1.54
2023-01-28T10:20:48.976Z,1.69
2023-01-28T10:23:20.993Z,1.96
2023-01-28T10:25:50.372Z,1.81
2023-01-28T10:28:20.393Z,1.80
2023-01-28T10:30:48.859Z,1.72
2023-01-28T10:33:21.338Z,1.89
2023-01-28T10:35:50.361Z,1.67
2023-01-28T10:38:21.654Z,1.94
2023-01-28T10:40:53.340Z,1.88
2023-01-28T10:43:23.828Z,1.67
2023-01-28T10:45:56.849Z,1.84
2023-01-28T10:48:25.960Z,1.66
2023-01-28T10:50:56.992Z,2.03
2023-01-28T10:53:34.659Z,1.96
2023-01-28T10:56:05.346Z,1.92
2023-01-28T10:58:35.661Z,1.76
2023-01-28T11:01:05.823Z,1.89
2023-01-28T11:03:44.271Z,2.00
2023-01-28T11:06:24.335Z,1.97
2023-01-28T11:08:52.346Z,2.08
2023-01-28T11:11:25.347Z,1.95
2023-01-28T11:13:54.773Z,2.05
2023-01-28T11:16:22.969Z,1.90
2023-01-28T11:18:53.316Z,2.04
2023-01-28T11:21:22.593Z,1.87
2023-01-28T11:23:52.418Z,2.16
2023-01-28T11:26:22.693Z,1.66
2023-01-28T11:28:53.432Z,1.90
2023-01-28T11:31:23.391Z,1.80
2023-01-28T11:33:52.964Z,1.67
2023-01-28T11:36:22.018Z,1.63
2023-01-28T11:38:51.076Z,1.39
2023-01-28T11:41:19.947Z,1.77
2023-01-28T11:43:55.087Z,1.53
2023-01-28T11:46:44.602Z,1.40
2023-01-28T11:49:18.074Z,1.53
2023-01-28T11:51:49.225Z,1.42
2023-01-28T11:54:26.685Z,1.33
2023-01-28T11:57:01.522Z,1.41
2023-01-28T11:59:49.770Z,1.26
2023-01-28T12:02:27.809Z,1.33
2023-01-28T12:05:04.836Z,1.48
2023-01-28T12:07:38.428Z,1.42
2023-01-28T12:10:12.812Z,1.45
2023-01-28T12:13:05.397Z,1.37
2023-01-28T12:15:48.185Z,1.56
2023-01-28T12:18:23.957Z,1.41
2023-01-28T12:20:56.975Z,1.13
2023-01-28T12:23:33.011Z,1.26
2023-01-28T12:26:07.414Z,1.21
2023-01-28T12:28:44.739Z,1.37
2023-01-28T12:31:27.779Z,1.18
2023-01-28T12:34:06.384Z,1.31
2023-01-28T12:36:44.136Z,1.22
2023-01-28T12:39:20.091Z,1.52
2023-01-28T12:41:49.664Z,1.19
2023-01-28T12:44:22.764Z,1.30
2023-01-28T12:46:55.721Z,1.31
2023-01-28T12:49:26.869Z,1.19
2023-01-28T12:52:00.056Z,1.10
2023-01-28T12:54:30.617Z,1.17
2023-01-28T12:56:59.259Z,1.21
2023-01-28T12:59:30.310Z,1.07
2023-01-28T13:02:15.559Z,1.11
2023-01-28T13:04:52.484Z,1.16
2023-01-28T13:07:24.979Z,1.17
2023-01-28T13:09:55.563Z,1.15
2023-01-28T13:12:26.654Z,1.29
2023-01-28T13:14:56.332Z,1.35
2023-01-28T13:17:28.916Z,1.43
2023-01-28T13:19:58.801Z,1.62
2023-01-28T13:22:28.487Z,1.50
2023-01-28T13:24:56.927Z,1.69
2023-01-28T13:27:25.976Z,1.52
2023-01-28T13:30:04.789Z,1.51
2023-01-28T13:32:34.453Z,1.62
2023-01-28T13:35:05.993Z,1.58
2023-01-28T13:37:34.991Z,1.52
2023-01-28T13:40:05.218Z,1.65
2023-01-28T13:42:33.483Z,1.56
2023-01-28T13:45:25.549Z,1.59
2023-01-28T13:47:54.993Z,1.64
2023-01-28T13:50:25.607Z,1.72
2023-01-28T13:52:57.496Z,1.75
2023-01-28T13:55:42.745Z,1.72
2023-01-28T13:58:26.520Z,1.67
2023-01-28T14:01:11.285Z,1.81
2023-01-28T14:03:48.414Z,1.73
2023-01-28T14:06:40.723Z,1.81
2023-01-28T14:09:24.040Z,1.83
2023-01-28T14:12:05.763Z,1.77
2023-01-28T14:14:48.672Z,1.78
2023-01-28T14:17:23.312Z,1.80
2023-01-28T14:19:52.087Z,1.73
2023-01-28T14:22:21.093Z,1.64
2023-01-28T14:24:49.409Z,1.72
2023-01-28T14:27:22.485Z,1.83
2023-01-28T14:29:57.907Z,1.89
2023-01-28T14:32:28.556Z,1.64
2023-01-28T14:34:57.779Z,1.84
2023-01-28T14:37:29.142Z,1.83
2023-01-28T14:39:59.461Z,1.72
2023-01-28T14:42:31.065Z,1.76
2023-01-28T14:45:08.213Z,1.81
2023-01-28T14:47:43.306Z,2.00
2023-01-28T14:50:26.886Z,1.91
2023-01-28T14:53:13.837Z,1.72
2023-01-28T14:55:49.461Z,1.84
2023-01-28T14:58:21.799Z,2.18
2023-01-28T15:00:56.619Z,1.98
2023-01-28T15:03:25.881Z,1.72
2023-01-28T15:06:11.937Z,1.97
2023-01-28T15:08:40.470Z,1.86
2023-01-28T15:11:10.228Z,2.12
2023-01-28T15:13:41.712Z,1.83
2023-01-28T15:16:17.444Z,1.91
2023-01-28T15:18:46.318Z,1.81
2023-01-28T15:21:14.778Z,1.80
2023-01-28T15:23:43.759Z,1.98
2023-01-28T15:26:14.658Z,1.78
2023-01-28T15:28:45.253Z,1.79
2023-01-28T15:31:20.611Z,1.94
2023-01-28T15:34:00.385Z,1.95
2023-01-28T15:36:28.849Z,1.81
2023-01-28T15:38:57.510Z,1.77
2023-01-28T15:41:28.987Z,1.73
2023-01-28T15:43:58.423Z,1.81
2023-01-28T15:46:26.672Z,1.73
2023-01-28T15:48:58.132Z,1.72
2023-01-28T15:51:30.941Z,1.65
2023-01-28T15:54:00.656Z,1.68
2023-01-28T15:56:29.936Z,1.71
2023-01-28T15:59:10.567Z,1.70
2023-01-28T16:01:38.631Z,1.82
2023-01-28T16:04:09.534Z,1.70
2023-01-28T16:06:38.913Z,1.62
2023-01-28T16:09:08.459Z,1.71
2023-01-28T16:11:41.366Z,1.72
2023-01-28T16:14:21.858Z,1.66
2023-01-28T16:16:50.409Z,1.59
2023-01-28T16:19:26.607Z,1.70
2023-01-28T16:21:54.743Z,1.59
2023-01-28T16:24:23.992Z,1.83
2023-01-28T16:26:59.102Z,1.62
2023-01-28T16:29:30.809Z,1.59
2023-01-28T16:32:00.522Z,1.55
2023-01-28T16:34:30.981Z,1.66
2023-01-28T16:37:01.674Z,1.51
2023-01-28T16:39:32.840Z,1.61
2023-01-28T16:42:03.008Z,1.55
2023-01-28T16:44:32.399Z,1.52
2023-01-28T16:47:00.501Z,1.67
2023-01-28T16:49:28.828Z,1.68
2023-01-28T16:51:56.879Z,1.59
2023-01-28T16:54:25.051Z,1.65
2023-01-28T16:56:53.089Z,1.52
2023-01-28T16:59:21.089Z,1.45
2023-01-28T17:01:51.117Z,1.49
2023-01-28T17:04:19.284Z,1.51
2023-01-28T17:06:47.400Z,1.34
2023-01-28T17:09:17.657Z,1.33
2023-01-28T17:11:45.729Z,1.24
2023-01-28T17:14:13.806Z,1.27
2023-01-28T17:16:41.857Z,1.25
2023-01-28T17:19:11.204Z,1.15
2023-01-28T17:21:39.264Z,1.25
2023-01-28T17:24:07.788Z,1.31
2023-01-28T17:26:37.015Z,1.20
2023-01-28T17:29:05.745Z,1.21
2023-01-28T17:31:33.968Z,1.25
2023-01-28T17:34:02.539Z,1.28
2023-01-28T17:36:32.080Z,1.16
2023-01-28T17:39:00.107Z,1.18
2023-01-28T17:41:28.112Z,1.20
2023-01-28T17:43:59.720Z,1.14
2023-01-28T17:46:27.863Z,1.15
2023-01-28T17:48:55.967Z,1.18
2023-01-28T17:51:24.065Z,1.11
2023-01-28T17:53:53.955Z,0.99
2023-01-28T17:56:23.401Z,1.10
2023-01-28T17:58:51.872Z,1.11
2023-01-28T18:01:20.416Z,1.07
2023-01-28T18:03:48.919Z,1.03
2023-01-28T18:06:17.248Z,1.10
2023-01-28T18:08:45.557Z,1.13
2023-01-28T18:11:16.113Z,0.98
2023-01-28T18:13:44.173Z,1.07
2023-01-28T18:16:14.979Z,1.01
2023-01-28T18:18:43.211Z,0.94
2023-01-28T18:21:20.553Z,0.99
2023-01-28T18:23:48.787Z,0.97
2023-01-28T18:26:20.201Z,0.97
2023-01-28T18:28:48.352Z,0.94
2023-01-28T18:31:16.590Z,0.92
2023-01-28T18:33:44.672Z,0.89
2023-01-28T18:36:12.940Z,1.00
2023-01-28T18:38:40.995Z,0.91
2023-01-28T18:41:09.180Z,0.88
2023-01-28T18:43:38.835Z,1.07
2023-01-28T18:46:11.216Z,1.04
2023-01-28T18:48:39.256Z,0.87
2023-01-28T18:51:27.755Z,0.82
2023-01-28T18:53:58.833Z,0.88
2023-01-28T18:56:29.973Z,0.78
2023-01-28T18:59:00.493Z,0.79
2023-01-28T19:01:28.841Z,0.79
2023-01-28T19:03:57.440Z,0.99
2023-01-28T19:06:26.266Z,0.75
2023-01-28T19:08:54.814Z,0.82
2023-01-28T19:11:23.242Z,0.74
2023-01-28T19:13:54.258Z,0.69
2023-01-28T19:16:24.081Z,0.55
2023-01-28T19:18:53.289Z,0.62
2023-01-28T19:21:21.569Z,0.68
2023-01-28T19:23:50.535Z,0.64
2023-01-28T19:26:21.356Z,0.61
2023-01-28T19:28:52.376Z,0.78
2023-01-28T19:31:20.993Z,0.59
2023-01-28T19:33:56.185Z,0.66
2023-01-28T19:36:25.931Z,0.82
2023-01-28T19:38:54.045Z,0.64
2023-01-28T19:41:22.117Z,0.59
2023-01-28T19:43:50.284Z,0.54
2023-01-28T19:46:18.551Z,0.50
2023-01-28T19:48:46.622Z,0.65
2023-01-28T19:51:16.513Z,0.94
2023-01-28T19:53:45.502Z,0.72
2023-01-28T19:56:18.414Z,0.79
2023-01-28T19:58:47.024Z,0.75
2023-01-28T20:01:16.595Z,0.70
2023-01-28T20:03:45.662Z,0.72
2023-01-28T20:06:15.274Z,0.85
2023-01-28T20:08:45.509Z,0.64
2023-01-28T20:11:14.907Z,0.93
2023-01-28T20:13:44.110Z,0.72
2023-01-28T20:16:14.247Z,0.70
2023-01-28T20:18:42.303Z,0.80
2023-01-28T20:21:10.406Z,1.11
2023-01-28T20:23:38.517Z,1.43
2023-01-28T20:26:07.947Z,1.25
2023-01-28T20:28:36.041Z,0.92
2023-01-28T20:31:05.464Z,0.81
2023-01-28T20:33:33.745Z,0.61
2023-01-28T20:36:02.648Z,0.44
2023-01-28T20:38:31.279Z,0.37
2023-01-28T20:40:59.449Z,0.36
2023-01-28T20:43:28.840Z,0.42
2023-01-28T20:46:03.137Z,0.20
2023-01-28T20:48:31.259Z,0.30
2023-01-28T20:51:04.942Z,0.34
2023-01-28T20:53:33.154Z,0.25
2023-01-28T20:56:01.260Z,0.18
2023-01-28T20:58:30.817Z,0.22
2023-01-28T21:00:59.091Z,0.18
2023-01-28T21:03:27.403Z,0.14
2023-01-28T21:05:55.545Z,0.20
2023-01-28T21:08:23.610Z,0.15
2023-01-28T21:10:51.647Z,0.17
2023-01-28T21:13:19.734Z,0.37
2023-01-28T21:15:55.947Z,0.13
2023-01-28T21:18:24.601Z,0.10
2023-01-28T21:20:53.703Z,0.15
2023-01-28T21:23:23.960Z,0.40
2023-01-28T21:25:52.425Z,0.28
2023-01-28T21:28:20.886Z,0.15
2023-01-28T21:30:49.044Z,0.44
2023-01-28T21:33:18.579Z,0.19
2023-01-28T21:35:46.923Z,0.31
2023-01-28T21:38:17.646Z,0.31
2023-01-28T21:40:47.949Z,0.07
2023-01-28T21:43:15.978Z,0.20
2023-01-28T21:45:47.618Z,0.25
2023-01-28T21:48:15.772Z,0.32
2023-01-28T21:50:59.100Z,0.54
2023-01-28T21:53:27.274Z,0.90
2023-01-28T21:55:55.527Z,1.51
2023-01-28T21:58:43.723Z,0.49
2023-01-28T22:02:37.145Z,0.27
2023-01-28T22:05:05.801Z,0.17
2023-01-28T22:07:33.958Z,0.17
2023-01-28T22:10:02.346Z,0.86
2023-01-28T22:12:30.459Z,0.15
2023-01-28T22:15:00.532Z,0.09
2023-01-28T22:17:28.873Z,0.09
2023-01-28T22:19:58.262Z,-0.05
2023-01-28T22:22:26.342Z,-0.09
2023-01-28T22:24:54.452Z,0.01
2023-01-28T22:27:22.477Z,0.06
2023-01-28T22:29:53.804Z,-0.10
2023-01-28T22:32:22.545Z,0.05
2023-01-28T22:34:50.653Z,-0.15
2023-01-28T22:37:20.145Z,-0.17
2023-01-28T22:39:48.195Z,-0.25
2023-01-28T22:42:16.199Z,-0.12
2023-01-28T22:44:44.192Z,-0.04
2023-01-28T22:47:12.335Z,-0.01
2023-01-28T22:49:42.986Z,-0.17
2023-01-28T22:52:10.999Z,-0.14
2023-01-28T22:54:40.555Z,-0.19
2023-01-28T22:57:08.698Z,-0.04
2023-01-28T22:59:36.868Z,-0.06
2023-01-28T23:02:05.230Z,0.00
2023-01-28T23:04:33.235Z,-0.19
2023-01-28T23:07:01.250Z,-0.10
2023-01-28T23:09:29.374Z,0.01
2023-01-28T23:11:59.000Z,-0.10
2023-01-28T23:14:44.351Z,-0.19
2023-01-28T23:17:29.935Z,-0.14
2023-01-28T23:20:15.847Z,-0.01
2023-01-28T23:23:01.546Z,0.26
2023-01-28T23:25:29.590Z,0.36
2023-01-28T23:27:59.034Z,0.49
2023-01-28T23:30:27.155Z,0.43
2023-01-28T23:32:56.925Z,-0.31
2023-01-28T23:35:25.830Z,-0.10
2023-01-28T23:37:54.298Z,-0.14
2023-01-28T23:40:24.441Z,-0.06
2023-01-28T23:42:52.579Z,-0.09
2023-01-28T23:45:22.230Z,-0.16
2023-01-28T23:47:50.340Z,-0.31
2023-01-28T23:50:19.136Z,-0.30
2023-01-28T23:52:47.458Z,-0.39
2023-01-28T23:55:17.904Z,-0.31
2023-01-28T23:57:48.326Z,-0.10
